createdAt,value
2024-05-09T00:02:16.170Z,6.80
2024-05-09T00:04:47.956Z,7.55
2024-05-09T00:07:19.225Z,9.07
2024-05-09T00:09:52.311Z,9.40
2024-05-09T00:12:20.172Z,9.93
2024-05-09T00:14:53.193Z,9.23
2024-05-09T00:17:25.286Z,9.60
2024-05-09T00:19:53.133Z,10.10
2024-05-09T00:22:23.588Z,8.73
2024-05-09T00:24:52.442Z,10.88
2024-05-09T00:27:21.121Z,10.95
2024-05-09T00:29:48.412Z,8.73
2024-05-09T00:32:18.933Z,13.18
2024-05-09T00:34:46.861Z,10.05
2024-05-09T00:37:14.258Z,7.90
2024-05-09T00:39:44.692Z,8.60
2024-05-09T00:42:12.326Z,8.05
2024-05-09T00:44:39.899Z,9.27
2024-05-09T00:47:15.105Z,8.18
2024-05-09T00:49:45.399Z,12.05
2024-05-09T00:52:13.493Z,8.52
2024-05-09T00:54:41.204Z,9.95
2024-05-09T00:57:12.722Z,7.43
2024-05-09T00:59:43.868Z,9.23
2024-05-09T01:02:16.526Z,8.55
2024-05-09T01:04:49.723Z,7.47
2024-05-09T01:07:22.533Z,9.88
2024-05-09T01:09:53.653Z,8.60
2024-05-09T01:12:21.310Z,11.02
2024-05-09T01:14:52.611Z,9.30
2024-05-09T01:17:26.789Z,9.88
2024-05-09T01:19:57.803Z,6.47
2024-05-09T01:22:32.495Z,11.77
2024-05-09T01:24:59.997Z,9.10
2024-05-09T01:27:27.655Z,9.77
2024-05-09T01:29:55.014Z,12.57
2024-05-09T01:32:23.606Z,9.40
2024-05-09T01:34:56.641Z,11.43
2024-05-09T01:37:26.433Z,9.07
2024-05-09T01:39:59.264Z,10.02
2024-05-09T01:42:35.610Z,8.80
2024-05-09T01:45:03.345Z,9.88
2024-05-09T01:47:33.802Z,9.45
2024-05-09T01:50:09.201Z,8.35
2024-05-09T01:53:04.897Z,9.48
2024-05-09T01:55:34.977Z,9.35
2024-05-09T01:58:02.829Z,10.10
2024-05-09T02:00:38.784Z,9.07
2024-05-09T02:03:16.623Z,7.22
2024-05-09T02:05:54.170Z,12.25
2024-05-09T02:08:25.507Z,7.60
2024-05-09T02:10:53.126Z,8.75
2024-05-09T02:13:23.798Z,8.50
2024-05-09T02:15:54.761Z,9.02
2024-05-09T02:18:25.441Z,12.20
2024-05-09T02:20:53.090Z,6.50
2024-05-09T02:23:23.680Z,9.43
2024-05-09T02:26:00.311Z,8.48
2024-05-09T02:28:28.732Z,16.63
2024-05-09T02:31:02.082Z,9.02
2024-05-09T02:33:33.973Z,11.10
2024-05-09T02:36:03.130Z,8.70
2024-05-09T02:38:33.287Z,8.63
2024-05-09T02:41:06.818Z,8.45
2024-05-09T02:43:34.420Z,7.78
2024-05-09T02:46:12.630Z,11.00
2024-05-09T02:48:41.115Z,8.75
2024-05-09T02:51:09.691Z,7.95
2024-05-09T02:53:41.700Z,10.32
2024-05-09T02:56:09.934Z,6.43
2024-05-09T02:58:43.568Z,7.20
2024-05-09T03:01:11.164Z,9.52
2024-05-09T03:03:38.736Z,6.88
2024-05-09T03:06:06.454Z,7.13
2024-05-09T03:08:34.282Z,7.80
2024-05-09T03:11:01.910Z,8.18
2024-05-09T03:13:32.976Z,10.95
2024-05-09T03:16:03.601Z,9.30
2024-05-09T03:18:32.311Z,7.50
2024-05-09T03:21:07.511Z,8.30
2024-05-09T03:23:45.733Z,6.13
2024-05-09T03:26:15.424Z,8.73
2024-05-09T03:28:49.018Z,8.35
2024-05-09T03:31:18.903Z,9.80
2024-05-09T03:33:46.470Z,5.90
2024-05-09T03:36:15.394Z,6.63
2024-05-09T03:38:47.413Z,9.50
2024-05-09T03:41:14.977Z,6.88
2024-05-09T03:43:46.784Z,10.10
2024-05-09T03:48:44.409Z,7.18
2024-05-09T03:51:12.085Z,6.90
2024-05-09T03:53:39.714Z,5.70
2024-05-09T03:56:17.773Z,7.60
2024-05-09T03:58:55.733Z,8.63
2024-05-09T04:01:37.310Z,11.32
2024-05-09T04:04:11.105Z,8.32
2024-05-09T04:06:38.840Z,7.43
2024-05-09T04:09:09.915Z,7.45
2024-05-09T04:11:43.427Z,8.32
2024-05-09T04:14:41.257Z,6.05
2024-05-09T04:17:14.871Z,4.93
2024-05-09T04:19:43.062Z,6.10
2024-05-09T04:22:13.804Z,6.60
2024-05-09T04:24:41.661Z,6.25
2024-05-09T04:27:09.628Z,5.45
2024-05-09T04:29:38.473Z,7.97
2024-05-09T04:32:11.144Z,4.47
2024-05-09T04:34:41.419Z,4.55
2024-05-09T04:37:11.838Z,9.25
2024-05-09T04:39:40.747Z,11.45
2024-05-09T04:42:17.178Z,4.80
2024-05-09T04:44:46.268Z,3.95
2024-05-09T04:47:14.899Z,6.60
2024-05-09T04:49:56.496Z,4.35
2024-05-09T04:52:39.524Z,2.67
2024-05-09T04:55:11.123Z,3.28
2024-05-09T04:57:41.579Z,6.13
2024-05-09T05:00:35.857Z,5.97
2024-05-09T05:03:09.486Z,4.15
2024-05-09T05:05:50.845Z,2.97
2024-05-09T05:08:19.490Z,4.05
2024-05-09T05:10:55.942Z,4.05
2024-05-09T05:13:32.135Z,4.43
2024-05-09T05:16:07.187Z,7.45
2024-05-09T05:18:34.945Z,15.05
2024-05-09T05:21:11.691Z,6.65
2024-05-09T05:23:41.790Z,5.07
2024-05-09T05:26:10.592Z,6.70
2024-05-09T05:28:41.860Z,6.43
2024-05-09T05:31:12.278Z,10.27
2024-05-09T05:33:39.857Z,9.65
2024-05-09T05:36:10.700Z,8.32
2024-05-09T05:38:38.531Z,10.52
2024-05-09T05:41:08.984Z,7.85
2024-05-09T05:43:36.543Z,9.38
2024-05-09T05:46:11.317Z,10.90
2024-05-09T05:48:39.043Z,7.40
2024-05-09T05:51:07.999Z,10.30
2024-05-09T05:53:35.796Z,12.82
2024-05-09T05:56:03.524Z,8.05
2024-05-09T05:58:31.207Z,12.95
2024-05-09T06:01:00.026Z,8.55
2024-05-09T06:03:29.648Z,9.30
2024-05-09T06:05:57.550Z,11.05
2024-05-09T06:08:30.458Z,13.50
2024-05-09T06:10:59.375Z,10.57
2024-05-09T06:13:27.181Z,9.55
2024-05-09T06:15:54.854Z,12.23
2024-05-09T06:18:29.901Z,11.68
2024-05-09T06:21:03.255Z,11.23
2024-05-09T06:23:33.622Z,10.70
2024-05-09T06:26:01.295Z,10.52
2024-05-09T06:28:31.883Z,12.80
2024-05-09T06:31:02.451Z,15.20
2024-05-09T06:33:33.302Z,16.23
2024-05-09T06:36:04.965Z,10.52
2024-05-09T06:38:40.034Z,12.65
2024-05-09T06:41:09.695Z,9.52
2024-05-09T06:43:41.530Z,18.30
2024-05-09T06:46:11.680Z,18.10
2024-05-09T06:48:59.093Z,11.70
2024-05-09T06:51:27.102Z,13.65
2024-05-09T06:54:02.038Z,12.00
2024-05-09T06:56:42.300Z,12.73
2024-05-09T06:59:11.133Z,9.80
2024-05-09T07:04:32.558Z,11.32
2024-05-09T07:07:00.359Z,12.70
2024-05-09T07:09:37.910Z,12.13
2024-05-09T07:12:08.951Z,18.38
2024-05-09T07:14:38.149Z,15.65
2024-05-09T07:17:10.723Z,16.52
2024-05-09T07:19:38.541Z,15.90
2024-05-09T07:22:06.370Z,15.32
2024-05-09T07:24:33.922Z,13.48
2024-05-09T07:27:03.507Z,14.02
2024-05-09T07:29:46.180Z,13.93
2024-05-09T07:32:13.885Z,15.18
2024-05-09T07:34:46.431Z,12.07
2024-05-09T07:40:05.914Z,10.90
2024-05-09T07:43:03.541Z,13.25
2024-05-09T07:46:28.604Z,13.27
2024-05-09T07:50:34.431Z,18.83
2024-05-09T07:53:14.119Z,12.13
2024-05-09T07:54:28.639Z,16.65
2024-05-09T07:57:01.807Z,19.05
2024-05-09T07:59:37.642Z,12.38
2024-05-09T08:02:06.337Z,15.95
2024-05-09T08:04:34.147Z,14.27
2024-05-09T08:07:01.491Z,17.80
2024-05-09T08:09:28.765Z,14.85
2024-05-09T08:11:56.289Z,17.15
2024-05-09T08:14:23.950Z,16.33
2024-05-09T08:16:51.669Z,14.35
2024-05-09T08:19:20.274Z,15.68
2024-05-09T08:21:48.138Z,13.15
2024-05-09T08:24:18.480Z,16.73
2024-05-09T08:26:45.883Z,12.60
2024-05-09T08:29:13.338Z,14.00
2024-05-09T08:31:41.224Z,11.10
2024-05-09T08:34:08.635Z,13.27
2024-05-09T08:36:36.137Z,11.52
2024-05-09T08:39:03.566Z,13.43
2024-05-09T08:41:33.328Z,11.88
2024-05-09T08:44:01.540Z,12.73
2024-05-09T08:46:31.875Z,10.40
2024-05-09T08:49:01.707Z,12.00
2024-05-09T08:51:29.766Z,10.20
2024-05-09T08:53:57.190Z,9.65
2024-05-09T08:56:28.916Z,6.28
2024-05-09T08:58:59.440Z,12.90
2024-05-09T09:01:31.284Z,10.05
2024-05-09T09:04:04.081Z,8.73
2024-05-09T09:06:33.730Z,5.88
2024-05-09T09:09:01.713Z,14.07
2024-05-09T09:11:29.060Z,6.82
2024-05-09T09:13:56.330Z,7.50
2024-05-09T09:16:37.205Z,6.75
2024-05-09T09:19:05.694Z,6.80
2024-05-09T09:21:35.049Z,6.80
2024-05-09T09:24:02.699Z,8.80
2024-05-09T09:26:31.697Z,7.90
2024-05-09T09:29:02.904Z,10.20
2024-05-09T09:31:31.260Z,8.82
2024-05-09T09:34:06.112Z,10.55
2024-05-09T09:36:39.263Z,14.20
2024-05-09T09:39:09.127Z,8.80
2024-05-09T09:41:38.428Z,9.25
2024-05-09T09:44:19.623Z,16.13
2024-05-09T09:46:47.767Z,11.98
2024-05-09T09:49:19.862Z,10.73
2024-05-09T09:51:48.624Z,9.98
2024-05-09T09:54:16.320Z,20.02
2024-05-09T09:56:45.930Z,13.73
2024-05-09T09:59:17.145Z,8.18
2024-05-09T10:01:46.182Z,12.45
2024-05-09T10:04:19.024Z,12.65
2024-05-09T10:06:54.449Z,12.73
2024-05-09T10:09:22.769Z,15.45
2024-05-09T10:11:54.503Z,29.85
2024-05-09T10:14:33.787Z,23.85
2024-05-09T10:17:05.653Z,12.38
2024-05-09T10:19:35.744Z,15.10
2024-05-09T10:22:06.337Z,10.38
2024-05-09T10:24:50.865Z,13.13
2024-05-09T10:27:28.502Z,15.55
2024-05-09T10:30:00.513Z,34.17
2024-05-09T10:32:38.027Z,34.15
2024-05-09T10:35:05.679Z,49.20
2024-05-09T10:37:33.481Z,37.63
2024-05-09T10:40:01.888Z,37.30
2024-05-09T10:42:31.736Z,79.97
2024-05-09T10:45:02.396Z,17.52
2024-05-09T10:47:34.008Z,10.80
2024-05-09T10:50:01.635Z,15.25
2024-05-09T10:52:29.039Z,14.43
2024-05-09T10:54:56.590Z,15.52
2024-05-09T10:57:24.743Z,18.42
2024-05-09T10:59:52.183Z,13.50
2024-05-09T11:02:19.498Z,14.63
2024-05-09T11:04:46.995Z,19.02
2024-05-09T11:07:16.302Z,10.70
2024-05-09T11:09:44.459Z,11.88
2024-05-09T11:12:11.823Z,11.40
2024-05-09T11:14:39.011Z,9.50
2024-05-09T11:17:07.753Z,11.45
2024-05-09T11:19:39.766Z,14.60
2024-05-09T11:22:07.348Z,10.55
2024-05-09T11:24:37.750Z,15.13
2024-05-09T11:27:06.395Z,20.85
2024-05-09T11:29:44.747Z,17.83
2024-05-09T11:32:13.691Z,13.13
2024-05-09T11:34:42.241Z,12.38
2024-05-09T11:37:11.178Z,11.23
2024-05-09T11:39:38.573Z,9.55
2024-05-09T11:42:06.273Z,10.10
2024-05-09T11:44:33.527Z,7.18
2024-05-09T11:47:00.886Z,8.38
2024-05-09T11:49:28.076Z,20.13
2024-05-09T11:51:55.363Z,10.25
2024-05-09T11:54:22.700Z,79.68
2024-05-09T11:56:51.766Z,67.60
2024-05-09T11:59:18.875Z,189.02
2024-05-09T12:01:46.202Z,77.15
2024-05-09T12:04:13.525Z,34.95
2024-05-09T12:06:40.910Z,22.15
2024-05-09T12:09:08.510Z,20.33
2024-05-09T12:11:35.842Z,13.68
2024-05-09T12:14:02.982Z,11.50
2024-05-09T12:16:30.493Z,13.15
2024-05-09T12:18:57.771Z,12.45
2024-05-09T12:21:27.813Z,13.43
2024-05-09T12:23:55.065Z,12.25
2024-05-09T12:26:22.806Z,9.55
2024-05-09T12:28:49.950Z,13.18
2024-05-09T12:31:17.204Z,13.60
2024-05-09T12:33:44.562Z,16.38
2024-05-09T12:36:11.907Z,10.93
2024-05-09T12:38:39.237Z,12.32
2024-05-09T12:41:06.588Z,11.63
2024-05-09T12:43:33.984Z,11.82
2024-05-09T12:46:02.684Z,12.93
2024-05-09T12:48:30.400Z,11.05
2024-05-09T12:50:57.868Z,11.75
2024-05-09T12:53:28.026Z,10.27
2024-05-09T12:55:59.941Z,13.27
2024-05-09T12:58:29.587Z,13.40
2024-05-09T13:00:56.917Z,11.30
2024-05-09T13:03:24.451Z,18.08
2024-05-09T13:05:52.489Z,10.75
2024-05-09T13:08:20.776Z,12.43
2024-05-09T13:10:48.786Z,14.15
2024-05-09T13:13:16.520Z,12.43
2024-05-09T13:15:44.074Z,12.40
2024-05-09T13:18:11.445Z,11.73
2024-05-09T13:20:38.669Z,11.85
2024-05-09T13:23:08.050Z,12.35
2024-05-09T13:25:37.110Z,14.57
2024-05-09T13:28:05.983Z,12.52
2024-05-09T13:30:39.691Z,12.15
2024-05-09T13:33:11.430Z,13.35
2024-05-09T13:35:45.540Z,12.90
2024-05-09T13:38:16.853Z,12.60
2024-05-09T13:40:44.348Z,12.48
2024-05-09T13:43:11.838Z,11.60
2024-05-09T13:45:40.360Z,10.05
2024-05-09T13:48:09.796Z,11.50
2024-05-09T13:50:37.734Z,17.40
2024-05-09T13:53:07.251Z,13.25
2024-05-09T13:55:37.712Z,12.82
2024-05-09T13:58:05.832Z,12.15
2024-05-09T14:00:43.857Z,13.00
2024-05-09T14:03:16.614Z,11.35
2024-05-09T14:05:51.704Z,13.13
2024-05-09T14:08:20.499Z,11.48
2024-05-09T14:10:49.501Z,13.85
2024-05-09T14:13:23.499Z,13.40
2024-05-09T14:15:51.156Z,16.17
2024-05-09T14:18:19.162Z,14.00
2024-05-09T14:20:46.586Z,12.80
2024-05-09T14:23:15.217Z,13.10
2024-05-09T14:25:43.887Z,15.30
2024-05-09T14:28:13.177Z,10.75
2024-05-09T14:30:43.940Z,13.05
2024-05-09T14:33:16.654Z,10.80
2024-05-09T14:35:44.287Z,13.70
2024-05-09T14:38:11.864Z,14.25
2024-05-09T14:40:42.950Z,11.00
2024-05-09T14:43:13.499Z,14.43
2024-05-09T14:45:41.696Z,14.02
2024-05-09T14:48:10.014Z,15.57
2024-05-09T14:50:39.626Z,13.75
2024-05-09T14:53:12.040Z,14.98
2024-05-09T14:58:11.089Z,10.90
2024-05-09T15:00:44.833Z,10.07
2024-05-09T15:03:15.745Z,13.45
2024-05-09T15:05:43.075Z,14.25
2024-05-09T15:08:10.269Z,12.15
2024-05-09T15:10:37.912Z,10.38
2024-05-09T15:13:07.954Z,11.18
2024-05-09T15:15:37.260Z,10.60
2024-05-09T15:18:05.645Z,11.88
2024-05-09T15:20:36.202Z,11.45
2024-05-09T15:23:07.936Z,15.40
2024-05-09T15:25:36.623Z,14.77
2024-05-09T15:28:07.668Z,12.13
2024-05-09T15:30:35.610Z,12.27
2024-05-09T15:33:07.334Z,17.65
2024-05-09T15:35:47.881Z,15.15
2024-05-09T15:38:43.630Z,13.55
2024-05-09T15:41:10.888Z,13.20
2024-05-09T15:43:42.811Z,11.77
2024-05-09T15:46:10.203Z,13.73
2024-05-09T15:48:39.242Z,10.63
2024-05-09T15:51:11.853Z,13.98
2024-05-09T15:53:41.751Z,12.10
2024-05-09T15:56:14.123Z,12.90
2024-05-09T15:58:44.806Z,16.85
2024-05-09T16:01:14.948Z,14.70
2024-05-09T16:03:43.315Z,23.05
2024-05-09T16:06:11.209Z,14.45
2024-05-09T16:08:39.050Z,9.15
2024-05-09T16:11:06.821Z,11.10
2024-05-09T16:13:36.908Z,8.63
2024-05-09T16:16:05.415Z,14.43
2024-05-09T16:18:33.057Z,16.30
2024-05-09T16:21:01.958Z,12.43
2024-05-09T16:23:29.929Z,15.02
2024-05-09T16:25:57.813Z,11.95
2024-05-09T16:28:26.989Z,10.70
2024-05-09T16:30:55.902Z,13.27
2024-05-09T16:33:26.493Z,10.60
2024-05-09T16:35:54.714Z,12.57
2024-05-09T16:38:22.544Z,12.13
2024-05-09T16:40:50.300Z,12.85
2024-05-09T16:43:21.241Z,12.38
2024-05-09T16:45:49.316Z,13.15
2024-05-09T16:48:17.550Z,11.70
2024-05-09T16:50:45.361Z,14.45
2024-05-09T16:53:14.154Z,13.73
2024-05-09T16:55:41.757Z,21.75
2024-05-09T16:58:12.482Z,14.35
2024-05-09T17:00:43.320Z,10.57
2024-05-09T17:05:47.364Z,11.52
2024-05-09T17:08:20.385Z,12.50
2024-05-09T17:10:51.819Z,14.32
2024-05-09T17:13:20.081Z,14.23
2024-05-09T17:15:48.860Z,11.68
2024-05-09T17:18:17.007Z,17.83
2024-05-09T17:20:44.247Z,12.93
2024-05-09T17:23:14.667Z,12.73
2024-05-09T17:25:42.857Z,14.02
2024-05-09T17:28:11.113Z,13.32
2024-05-09T17:30:40.700Z,13.80
2024-05-09T17:33:13.729Z,14.60
2024-05-09T17:35:41.676Z,16.40
2024-05-09T17:38:09.402Z,14.38
2024-05-09T17:40:38.267Z,12.38
2024-05-09T17:43:09.049Z,15.48
2024-05-09T17:45:41.732Z,16.42
2024-05-09T17:48:11.104Z,15.82
2024-05-09T17:50:39.748Z,15.55
2024-05-09T17:53:08.939Z,15.27
2024-05-09T17:55:36.769Z,13.73
2024-05-09T17:58:05.307Z,11.73
2024-05-09T18:00:39.093Z,14.30
2024-05-09T18:03:12.455Z,14.75
2024-05-09T18:08:09.014Z,16.80
2024-05-09T18:10:39.113Z,14.77
2024-05-09T18:13:08.953Z,16.88
2024-05-09T18:15:36.854Z,15.52
2024-05-09T18:18:05.198Z,16.63
2024-05-09T18:20:41.608Z,19.35
2024-05-09T18:23:17.176Z,17.63
2024-05-09T18:25:47.002Z,18.60
2024-05-09T18:28:15.553Z,15.85
2024-05-09T18:30:43.296Z,17.60
2024-05-09T18:33:11.663Z,19.63
2024-05-09T18:35:41.212Z,16.95
2024-05-09T18:38:10.951Z,20.13
2024-05-09T18:40:49.662Z,16.85
2024-05-09T18:43:17.633Z,19.13
2024-05-09T18:45:46.140Z,16.75
2024-05-09T18:48:13.809Z,20.92
2024-05-09T18:50:41.798Z,18.88
2024-05-09T18:53:11.883Z,17.45
2024-05-09T18:55:43.507Z,18.70
2024-05-09T18:58:10.932Z,18.20
2024-05-09T19:00:41.126Z,16.90
2024-05-09T19:03:13.065Z,16.88
2024-05-09T19:05:43.682Z,23.67
2024-05-09T19:08:12.508Z,20.13
2024-05-09T19:10:43.042Z,16.67
2024-05-09T19:13:12.912Z,17.00
2024-05-09T19:15:44.679Z,21.08
2024-05-09T19:18:15.908Z,20.90
2024-05-09T19:20:56.038Z,23.17
2024-05-09T19:23:25.630Z,21.90
2024-05-09T19:26:00.615Z,21.73
2024-05-09T19:29:27.858Z,23.23
2024-05-09T19:32:15.279Z,19.50
2024-05-09T19:34:55.097Z,23.90
2024-05-09T19:37:54.407Z,20.40
2024-05-09T19:40:43.926Z,22.60
2024-05-09T19:43:19.176Z,21.20
2024-05-09T19:56:34.214Z,21.20
2024-05-09T19:58:25.880Z,22.30
2024-05-09T20:04:32.382Z,20.40
2024-05-09T20:07:34.257Z,19.48
2024-05-09T20:10:40.075Z,22.73
2024-05-09T20:13:17.644Z,23.33
2024-05-09T20:20:07.405Z,20.67
2024-05-09T20:22:50.187Z,21.47
2024-05-09T20:26:11.571Z,20.07
2024-05-09T20:28:49.359Z,21.07
2024-05-09T20:56:57.785Z,22.95
2024-05-09T20:59:41.157Z,26.85
2024-05-09T21:02:26.493Z,24.55
2024-05-09T21:05:15.662Z,31.05
2024-05-09T21:07:58.806Z,23.27
2024-05-09T21:10:40.385Z,26.80
2024-05-09T21:13:34.460Z,20.15
2024-05-09T21:16:10.243Z,23.33
2024-05-09T21:18:57.506Z,21.77
2024-05-09T21:22:00.147Z,26.83
2024-05-09T21:24:54.398Z,23.48
2024-05-09T21:27:42.717Z,24.90
2024-05-09T21:30:31.775Z,23.05
2024-05-09T21:33:30.907Z,25.52
2024-05-09T21:40:09.030Z,25.17
2024-05-09T21:45:40.184Z,24.88
2024-05-09T21:48:14.450Z,24.92
2024-05-09T21:50:54.935Z,25.48
2024-05-09T21:53:53.024Z,23.08
2024-05-09T22:00:08.401Z,15.30
2024-05-09T22:02:54.467Z,22.33
2024-05-09T22:05:28.020Z,14.00
2024-05-09T22:08:20.967Z,13.30
2024-05-09T22:11:11.580Z,16.65
2024-05-09T22:14:20.568Z,14.48
2024-05-09T22:18:42.831Z,13.43
2024-05-09T22:20:14.662Z,12.50
2024-05-09T22:22:58.513Z,10.38
2024-05-09T22:25:37.756Z,16.38
2024-05-09T22:31:13.152Z,15.90
2024-05-09T22:34:17.026Z,14.02
2024-05-09T22:36:48.643Z,14.13
2024-05-09T22:39:24.256Z,15.50
2024-05-09T22:42:12.426Z,12.30
2024-05-09T22:45:01.156Z,19.50
2024-05-09T22:47:34.501Z,14.50
2024-05-09T22:50:26.982Z,13.93
2024-05-09T22:53:07.910Z,23.10
2024-05-09T22:56:09.010Z,15.60
2024-05-09T22:59:31.888Z,14.05
2024-05-09T23:02:14.671Z,15.73
2024-05-09T23:04:51.654Z,14.25
2024-05-09T23:07:41.095Z,17.10
2024-05-09T23:10:35.223Z,13.48
2024-05-09T23:13:08.531Z,16.67
2024-05-09T23:15:58.920Z,17.20
2024-05-09T23:18:33.639Z,19.42
2024-05-09T23:21:02.520Z,15.55
2024-05-09T23:23:52.739Z,13.05
2024-05-09T23:26:26.994Z,13.57
2024-05-09T23:28:59.408Z,12.70
2024-05-09T23:31:33.477Z,15.65
2024-05-09T23:34:11.601Z,13.88
2024-05-09T23:36:56.628Z,19.02
2024-05-09T23:39:32.545Z,16.90
2024-05-09T23:42:13.648Z,13.40
2024-05-09T23:44:48.050Z,17.60
2024-05-09T23:47:21.490Z,13.75
2024-05-09T23:49:58.554Z,17.65
2024-05-09T23:52:31.548Z,16.70
2024-05-09T23:55:14.292Z,14.52
2024-05-09T23:57:44.363Z,16.00
